Airfield :
LOGIN :

Register | Disclaimer

   EN    FR    IT 

 










Legend :    VFR   Marginal VFR   IFR   Intensive IFR   Very Intensive IFR
Visi :
Ceiling :
>= 8 km
>= 3000ft
5 to 8 km
1000 to 3000 ft
1500m to 5 km
500 to 1000 ft
800 to 1500m
200 to 500 ft
< 800m
< 200 ft
Symbols :   Thunderstorms  Fog  Heavy snow  Heavy precipitations  Wind > 20 kt
SIGMETs :     Misc.  Thunderstorms  Icing  Turbulence  Mountain Waves  Volcanic Ashes






- Airport Elevation : 436 ft
- IATA code : ANG


LFBU - Angoulême Brie Champniers

CURRENT METAR :
  • 261130Z AUTO 20007KT 160V240 9999 BKN020/// BKN035/// BKN052/// ///TCU 20/15 Q1019 TEMPO 24015G25KT 4000 SHRA BKN012 BKN020CB

EXPIRED METARs :
  • 261100Z AUTO 19008KT 140V230 9999 BKN019/// BKN024/// BKN036/// ///TCU 21/15 Q1019 TEMPO BKN010 BKN025TCU
  • 261030Z AUTO 21006KT 170V240 9999 BKN017/// BKN023/// OVC030/// ///CB 20/15 Q1019 TEMPO BKN010 BKN025TCU
  • 261000Z AUTO 20006KT 140V230 9999 BKN014 OVC027 19/16 Q1019 TEMPO BKN010 BKN025TCU
  • 260930Z AUTO 19006KT 140V220 9999 BKN015 OVC020 19/16 Q1019 TEMPO BKN010 BKN025TCU
  • 260900Z AUTO 17006KT 140V200 9999 BKN009 OVC014 18/16 Q1019 TEMPO BKN010 SCT025TCU

TAF TAF LFBU
Valid from the 26 at 12:00 until the 27 at 12:00 UTC


261100Z 2612/2712 22010KT 9999 BKN020
TEMPO 2612/2616 24015G25KT 4000 SHRA BKN020TCU
PROB30
TEMPO 2612/2615 BKN012 BKN020CB
BECMG 2620/2622 15006KT
BECMG 2708/2710 23010KT
TEMPO 2710/2712 24015G25KT 4000 RA



MET'MAP, your aeronautical weather chart ! - Copyright ORBIFLY December 2007 - Disclaimer

ORBIFLY MET'MAP TEAM :

Programming & Development : Alexandra Zaïnal
Concept & original design : Baudouin d'Aumeries
Assistance for programming : Marc-Olivier Méhu
Technical & hardware support : Manuel Goepfert

Contact : metmap@orbifly.com




SOURCES & CREDITS :

   NOAA